sensor_id;sensor_type;location;lat;lon;timestamp;P1;durP1;ratioP1;P2;durP2;ratioP2
18200;SDS011;9226;47.858;9.594;2024-03-02T00:02:21;20.87;;;8.93;;
18200;SDS011;9226;47.858;9.594;2024-03-02T00:04:46;16.83;;;8.23;;
18200;SDS011;9226;47.858;9.594;2024-03-02T00:07:12;22.67;;;9.17;;
18200;SDS011;9226;47.858;9.594;2024-03-02T00:09:39;18.40;;;8.80;;
18200;SDS011;9226;47.858;9.594;2024-03-02T00:12:05;16.17;;;8.30;;
18200;SDS011;9226;47.858;9.594;2024-03-02T00:14:31;21.87;;;9.40;;
18200;SDS011;9226;47.858;9.594;2024-03-02T00:16:56;15.53;;;8.50;;
18200;SDS011;9226;47.858;9.594;2024-03-02T00:19:22;16.57;;;8.33;;
18200;SDS011;9226;47.858;9.594;2024-03-02T00:21:48;16.60;;;8.63;;
18200;SDS011;9226;47.858;9.594;2024-03-02T00:24:32;15.43;;;8.00;;
18200;SDS011;9226;47.858;9.594;2024-03-02T00:26:59;16.23;;;8.40;;
18200;SDS011;9226;47.858;9.594;2024-03-02T00:29:25;17.47;;;8.53;;
18200;SDS011;9226;47.858;9.594;2024-03-02T00:31:50;16.73;;;7.53;;
18200;SDS011;9226;47.858;9.594;2024-03-02T00:34:16;15.53;;;7.87;;
18200;SDS011;9226;47.858;9.594;2024-03-02T00:36:42;17.10;;;7.97;;
18200;SDS011;9226;47.858;9.594;2024-03-02T00:39:09;19.97;;;8.30;;
18200;SDS011;9226;47.858;9.594;2024-03-02T00:41:38;16.33;;;8.00;;
18200;SDS011;9226;47.858;9.594;2024-03-02T00:44:07;15.77;;;7.83;;
18200;SDS011;9226;47.858;9.594;2024-03-02T00:46:40;16.97;;;8.70;;
18200;SDS011;9226;47.858;9.594;2024-03-02T00:49:17;87.97;;;12.40;;
18200;SDS011;9226;47.858;9.594;2024-03-02T00:51:46;83.30;;;11.63;;
18200;SDS011;9226;47.858;9.594;2024-03-02T00:54:15;41.00;;;11.83;;
18200;SDS011;9226;47.858;9.594;2024-03-02T00:56:49;33.53;;;10.67;;
18200;SDS011;9226;47.858;9.594;2024-03-02T00:59:15;144.33;;;14.67;;
18200;SDS011;9226;47.858;9.594;2024-03-02T01:01:40;68.37;;;12.10;;
18200;SDS011;9226;47.858;9.594;2024-03-02T01:04:07;35.27;;;10.50;;
18200;SDS011;9226;47.858;9.594;2024-03-02T01:06:32;24.13;;;10.77;;
18200;SDS011;9226;47.858;9.594;2024-03-02T01:08:58;21.37;;;10.47;;
18200;SDS011;9226;47.858;9.594;2024-03-02T01:11:23;21.30;;;10.07;;
18200;SDS011;9226;47.858;9.594;2024-03-02T01:13:48;22.43;;;10.93;;
18200;SDS011;9226;47.858;9.594;2024-03-02T01:16:14;20.17;;;10.13;;
18200;SDS011;9226;47.858;9.594;2024-03-02T01:18:41;25.67;;;10.60;;
18200;SDS011;9226;47.858;9.594;2024-03-02T01:21:07;23.37;;;9.93;;
18200;SDS011;9226;47.858;9.594;2024-03-02T01:23:32;34.37;;;10.97;;
18200;SDS011;9226;47.858;9.594;2024-03-02T01:25:58;24.40;;;10.37;;
18200;SDS011;9226;47.858;9.594;2024-03-02T01:28:23;24.93;;;10.93;;
18200;SDS011;9226;47.858;9.594;2024-03-02T01:30:48;20.83;;;10.77;;
18200;SDS011;9226;47.858;9.594;2024-03-02T01:33:15;63.13;;;20.57;;
18200;SDS011;9226;47.858;9.594;2024-03-02T01:35:41;96.67;;;28.90;;
18200;SDS011;9226;47.858;9.594;2024-03-02T01:38:06;133.20;;;38.73;;
18200;SDS011;9226;47.858;9.594;2024-03-02T01:40:35;125.23;;;33.90;;
18200;SDS011;9226;47.858;9.594;2024-03-02T01:43:02;45.73;;;15.77;;
18200;SDS011;9226;47.858;9.594;2024-03-02T01:45:27;23.63;;;9.80;;
18200;SDS011;9226;47.858;9.594;2024-03-02T01:47:53;19.20;;;8.77;;
18200;SDS011;9226;47.858;9.594;2024-03-02T01:50:28;15.37;;;7.50;;
18200;SDS011;9226;47.858;9.594;2024-03-02T01:52:55;15.27;;;7.53;;
18200;SDS011;9226;47.858;9.594;2024-03-02T01:55:21;16.00;;;8.07;;
18200;SDS011;9226;47.858;9.594;2024-03-02T01:57:47;16.50;;;8.40;;
18200;SDS011;9226;47.858;9.594;2024-03-02T02:00:14;17.13;;;8.53;;
18200;SDS011;9226;47.858;9.594;2024-03-02T02:02:40;14.37;;;7.70;;
18200;SDS011;9226;47.858;9.594;2024-03-02T02:05:05;16.70;;;8.47;;
18200;SDS011;9226;47.858;9.594;2024-03-02T02:07:31;16.17;;;8.43;;
18200;SDS011;9226;47.858;9.594;2024-03-02T02:09:57;16.83;;;8.63;;
18200;SDS011;9226;47.858;9.594;2024-03-02T02:12:22;17.23;;;7.90;;
18200;SDS011;9226;47.858;9.594;2024-03-02T02:14:48;17.27;;;8.60;;
18200;SDS011;9226;47.858;9.594;2024-03-02T02:17:15;21.03;;;9.57;;
18200;SDS011;9226;47.858;9.594;2024-03-02T02:19:41;16.43;;;8.43;;
18200;SDS011;9226;47.858;9.594;2024-03-02T02:22:06;19.97;;;8.63;;
18200;SDS011;9226;47.858;9.594;2024-03-02T02:24:32;17.50;;;8.63;;
18200;SDS011;9226;47.858;9.594;2024-03-02T02:26:57;21.60;;;10.13;;
18200;SDS011;9226;47.858;9.594;2024-03-02T02:29:22;18.87;;;9.10;;
18200;SDS011;9226;47.858;9.594;2024-03-02T02:31:48;20.30;;;9.63;;
18200;SDS011;9226;47.858;9.594;2024-03-02T02:34:13;18.77;;;9.20;;
18200;SDS011;9226;47.858;9.594;2024-03-02T02:36:40;16.37;;;9.07;;
18200;SDS011;9226;47.858;9.594;2024-03-02T02:39:05;16.90;;;8.47;;
18200;SDS011;9226;47.858;9.594;2024-03-02T02:41:35;16.40;;;8.43;;
18200;SDS011;9226;47.858;9.594;2024-03-02T02:44:01;18.60;;;8.43;;
18200;SDS011;9226;47.858;9.594;2024-03-02T02:46:26;16.47;;;8.57;;
18200;SDS011;9226;47.858;9.594;2024-03-02T02:48:52;16.57;;;8.70;;
18200;SDS011;9226;47.858;9.594;2024-03-02T02:51:18;23.33;;;9.77;;
18200;SDS011;9226;47.858;9.594;2024-03-02T02:53:43;17.97;;;9.23;;
18200;SDS011;9226;47.858;9.594;2024-03-02T02:56:09;19.57;;;10.00;;
18200;SDS011;9226;47.858;9.594;2024-03-02T02:58:34;23.03;;;10.80;;
18200;SDS011;9226;47.858;9.594;2024-03-02T03:01:00;21.97;;;10.47;;
18200;SDS011;9226;47.858;9.594;2024-03-02T03:03:26;20.17;;;9.37;;
18200;SDS011;9226;47.858;9.594;2024-03-02T03:05:51;82.13;;;12.47;;
18200;SDS011;9226;47.858;9.594;2024-03-02T03:08:16;109.70;;;13.33;;
18200;SDS011;9226;47.858;9.594;2024-03-02T03:10:42;726.77;;;35.87;;
18200;SDS011;9226;47.858;9.594;2024-03-02T03:13:07;172.80;;;14.13;;
18200;SDS011;9226;47.858;9.594;2024-03-02T03:15:36;72.93;;;10.77;;
18200;SDS011;9226;47.858;9.594;2024-03-02T03:18:02;19.33;;;8.90;;
18200;SDS011;9226;47.858;9.594;2024-03-02T03:20:28;39.17;;;9.50;;
18200;SDS011;9226;47.858;9.594;2024-03-02T03:22:54;91.43;;;11.07;;
18200;SDS011;9226;47.858;9.594;2024-03-02T03:25:19;42.00;;;9.53;;
18200;SDS011;9226;47.858;9.594;2024-03-02T03:27:45;35.13;;;8.83;;
18200;SDS011;9226;47.858;9.594;2024-03-02T03:30:11;170.77;;;13.87;;
18200;SDS011;9226;47.858;9.594;2024-03-02T03:32:36;145.10;;;12.73;;
18200;SDS011;9226;47.858;9.594;2024-03-02T03:35:02;343.10;;;18.43;;
18200;SDS011;9226;47.858;9.594;2024-03-02T03:37:28;224.23;;;14.97;;
18200;SDS011;9226;47.858;9.594;2024-03-02T03:39:57;107.17;;;12.17;;
18200;SDS011;9226;47.858;9.594;2024-03-02T03:42:23;198.60;;;15.13;;
18200;SDS011;9226;47.858;9.594;2024-03-02T03:44:49;84.27;;;11.37;;
18200;SDS011;9226;47.858;9.594;2024-03-02T03:47:14;95.40;;;11.33;;
18200;SDS011;9226;47.858;9.594;2024-03-02T03:49:39;75.47;;;11.53;;
18200;SDS011;9226;47.858;9.594;2024-03-02T03:52:05;31.07;;;10.40;;
18200;SDS011;9226;47.858;9.594;2024-03-02T03:54:30;58.13;;;9.83;;
18200;SDS011;9226;47.858;9.594;2024-03-02T03:56:55;39.70;;;9.57;;
18200;SDS011;9226;47.858;9.594;2024-03-02T03:59:21;41.60;;;9.50;;
18200;SDS011;9226;47.858;9.594;2024-03-02T04:01:46;38.40;;;9.67;;
18200;SDS011;9226;47.858;9.594;2024-03-02T04:04:12;22.00;;;10.10;;
18200;SDS011;9226;47.858;9.594;2024-03-02T04:06:37;22.70;;;10.07;;
18200;SDS011;9226;47.858;9.594;2024-03-02T04:09:02;19.30;;;9.70;;
18200;SDS011;9226;47.858;9.594;2024-03-02T04:11:28;19.43;;;9.40;;
18200;SDS011;9226;47.858;9.594;2024-03-02T04:13:55;18.73;;;9.70;;
18200;SDS011;9226;47.858;9.594;2024-03-02T04:16:21;19.57;;;9.37;;
18200;SDS011;9226;47.858;9.594;2024-03-02T04:18:46;21.67;;;9.80;;
18200;SDS011;9226;47.858;9.594;2024-03-02T04:21:11;21.03;;;9.10;;
18200;SDS011;9226;47.858;9.594;2024-03-02T04:23:37;20.93;;;9.40;;
18200;SDS011;9226;47.858;9.594;2024-03-02T04:26:02;19.37;;;8.87;;
18200;SDS011;9226;47.858;9.594;2024-03-02T04:28:28;23.63;;;8.90;;
18200;SDS011;9226;47.858;9.594;2024-03-02T04:30:53;19.63;;;9.73;;
18200;SDS011;9226;47.858;9.594;2024-03-02T04:33:18;24.00;;;9.57;;
18200;SDS011;9226;47.858;9.594;2024-03-02T04:35:44;22.03;;;9.93;;
18200;SDS011;9226;47.858;9.594;2024-03-02T04:38:09;19.63;;;9.87;;
18200;SDS011;9226;47.858;9.594;2024-03-02T04:40:34;18.83;;;8.93;;
18200;SDS011;9226;47.858;9.594;2024-03-02T04:43:00;19.63;;;9.27;;
18200;SDS011;9226;47.858;9.594;2024-03-02T04:45:25;17.93;;;7.90;;
18200;SDS011;9226;47.858;9.594;2024-03-02T04:47:50;18.53;;;9.03;;
18200;SDS011;9226;47.858;9.594;2024-03-02T04:50:16;17.37;;;8.63;;
18200;SDS011;9226;47.858;9.594;2024-03-02T04:52:41;19.17;;;8.77;;
18200;SDS011;9226;47.858;9.594;2024-03-02T04:55:06;193.90;;;15.13;;
18200;SDS011;9226;47.858;9.594;2024-03-02T04:57:42;31.00;;;8.77;;
18200;SDS011;9226;47.858;9.594;2024-03-02T05:00:08;96.77;;;10.23;;
18200;SDS011;9226;47.858;9.594;2024-03-02T05:02:34;364.17;;;19.50;;
18200;SDS011;9226;47.858;9.594;2024-03-02T05:05:00;98.03;;;10.67;;
18200;SDS011;9226;47.858;9.594;2024-03-02T05:07:26;15.33;;;7.80;;
18200;SDS011;9226;47.858;9.594;2024-03-02T05:09:51;26.80;;;8.60;;
18200;SDS011;9226;47.858;9.594;2024-03-02T05:12:16;19.10;;;8.20;;
18200;SDS011;9226;47.858;9.594;2024-03-02T05:15:05;19.93;;;9.20;;
18200;SDS011;9226;47.858;9.594;2024-03-02T05:17:32;23.63;;;10.87;;
18200;SDS011;9226;47.858;9.594;2024-03-02T05:19:57;26.37;;;10.73;;
18200;SDS011;9226;47.858;9.594;2024-03-02T05:22:23;46.27;;;11.73;;
18200;SDS011;9226;47.858;9.594;2024-03-02T05:24:48;39.60;;;12.07;;
18200;SDS011;9226;47.858;9.594;2024-03-02T05:27:13;33.33;;;12.53;;
18200;SDS011;9226;47.858;9.594;2024-03-02T05:29:39;30.67;;;12.63;;
18200;SDS011;9226;47.858;9.594;2024-03-02T05:32:05;27.13;;;10.83;;
18200;SDS011;9226;47.858;9.594;2024-03-02T05:34:30;35.67;;;11.80;;
18200;SDS011;9226;47.858;9.594;2024-03-02T05:36:57;66.57;;;12.63;;
18200;SDS011;9226;47.858;9.594;2024-03-02T05:39:23;116.37;;;16.17;;
18200;SDS011;9226;47.858;9.594;2024-03-02T05:41:48;90.03;;;13.50;;
18200;SDS011;9226;47.858;9.594;2024-03-02T05:44:13;154.77;;;15.47;;
18200;SDS011;9226;47.858;9.594;2024-03-02T05:46:40;177.50;;;16.47;;
18200;SDS011;9226;47.858;9.594;2024-03-02T05:49:06;376.10;;;23.77;;
18200;SDS011;9226;47.858;9.594;2024-03-02T05:51:34;253.47;;;19.27;;
18200;SDS011;9226;47.858;9.594;2024-03-02T05:54:00;297.37;;;21.57;;
18200;SDS011;9226;47.858;9.594;2024-03-02T05:56:25;241.30;;;21.13;;
18200;SDS011;9226;47.858;9.594;2024-03-02T05:58:50;224.30;;;18.13;;
18200;SDS011;9226;47.858;9.594;2024-03-02T06:01:19;244.30;;;18.50;;
18200;SDS011;9226;47.858;9.594;2024-03-02T06:03:44;245.07;;;18.53;;
18200;SDS011;9226;47.858;9.594;2024-03-02T06:06:10;280.40;;;20.30;;
18200;SDS011;9226;47.858;9.594;2024-03-02T06:08:35;269.57;;;19.83;;
18200;SDS011;9226;47.858;9.594;2024-03-02T06:11:01;502.67;;;29.40;;
18200;SDS011;9226;47.858;9.594;2024-03-02T06:13:26;563.50;;;35.50;;
18200;SDS011;9226;47.858;9.594;2024-03-02T06:15:52;654.80;;;37.80;;
18200;SDS011;9226;47.858;9.594;2024-03-02T06:18:17;487.60;;;29.97;;
18200;SDS011;9226;47.858;9.594;2024-03-02T06:20:43;521.33;;;33.13;;
18200;SDS011;9226;47.858;9.594;2024-03-02T06:23:08;566.90;;;36.20;;
18200;SDS011;9226;47.858;9.594;2024-03-02T06:25:34;536.23;;;31.23;;
18200;SDS011;9226;47.858;9.594;2024-03-02T06:27:59;414.30;;;25.73;;
18200;SDS011;9226;47.858;9.594;2024-03-02T06:30:24;231.87;;;20.93;;
18200;SDS011;9226;47.858;9.594;2024-03-02T06:32:51;264.63;;;19.67;;
18200;SDS011;9226;47.858;9.594;2024-03-02T06:35:16;169.37;;;17.47;;
18200;SDS011;9226;47.858;9.594;2024-03-02T06:37:41;307.73;;;21.53;;
18200;SDS011;9226;47.858;9.594;2024-03-02T06:40:07;270.17;;;18.13;;
18200;SDS011;9226;47.858;9.594;2024-03-02T06:42:33;308.67;;;20.70;;
18200;SDS011;9226;47.858;9.594;2024-03-02T06:44:59;380.73;;;24.30;;
18200;SDS011;9226;47.858;9.594;2024-03-02T06:47:25;266.97;;;18.30;;
18200;SDS011;9226;47.858;9.594;2024-03-02T06:49:50;381.50;;;23.70;;
18200;SDS011;9226;47.858;9.594;2024-03-02T06:52:16;190.27;;;18.17;;
18200;SDS011;9226;47.858;9.594;2024-03-02T06:54:41;191.27;;;20.17;;
18200;SDS011;9226;47.858;9.594;2024-03-02T06:57:07;324.60;;;22.07;;
18200;SDS011;9226;47.858;9.594;2024-03-02T06:59:32;372.73;;;23.27;;
18200;SDS011;9226;47.858;9.594;2024-03-02T07:01:59;356.67;;;23.07;;
18200;SDS011;9226;47.858;9.594;2024-03-02T07:04:24;119.77;;;17.07;;
18200;SDS011;9226;47.858;9.594;2024-03-02T07:06:50;133.83;;;14.37;;
18200;SDS011;9226;47.858;9.594;2024-03-02T07:09:16;102.20;;;14.97;;
18200;SDS011;9226;47.858;9.594;2024-03-02T07:11:41;124.77;;;14.87;;
18200;SDS011;9226;47.858;9.594;2024-03-02T07:14:07;69.30;;;14.40;;
18200;SDS011;9226;47.858;9.594;2024-03-02T07:16:32;109.70;;;13.00;;
18200;SDS011;9226;47.858;9.594;2024-03-02T07:18:59;206.77;;;17.03;;
18200;SDS011;9226;47.858;9.594;2024-03-02T07:21:26;122.77;;;14.37;;
18200;SDS011;9226;47.858;9.594;2024-03-02T07:23:52;84.43;;;13.53;;
18200;SDS011;9226;47.858;9.594;2024-03-02T07:26:17;149.33;;;14.47;;
18200;SDS011;9226;47.858;9.594;2024-03-02T07:28:43;50.03;;;11.90;;
18200;SDS011;9226;47.858;9.594;2024-03-02T07:31:10;104.87;;;13.17;;
18200;SDS011;9226;47.858;9.594;2024-03-02T07:33:36;57.10;;;12.17;;
18200;SDS011;9226;47.858;9.594;2024-03-02T07:36:01;55.27;;;12.57;;
18200;SDS011;9226;47.858;9.594;2024-03-02T07:38:28;57.37;;;13.00;;
18200;SDS011;9226;47.858;9.594;2024-03-02T07:40:54;101.07;;;15.53;;
18200;SDS011;9226;47.858;9.594;2024-03-02T07:43:20;96.40;;;13.03;;
18200;SDS011;9226;47.858;9.594;2024-03-02T07:45:46;107.40;;;12.63;;
18200;SDS011;9226;47.858;9.594;2024-03-02T07:48:12;141.13;;;15.47;;
18200;SDS011;9226;47.858;9.594;2024-03-02T07:50:37;115.97;;;13.83;;
18200;SDS011;9226;47.858;9.594;2024-03-02T07:53:04;116.03;;;12.63;;
18200;SDS011;9226;47.858;9.594;2024-03-02T07:55:30;30.47;;;11.43;;
18200;SDS011;9226;47.858;9.594;2024-03-02T07:57:55;110.33;;;13.73;;
18200;SDS011;9226;47.858;9.594;2024-03-02T08:00:21;162.47;;;15.13;;
18200;SDS011;9226;47.858;9.594;2024-03-02T08:02:48;238.13;;;16.57;;
18200;SDS011;9226;47.858;9.594;2024-03-02T08:05:13;142.47;;;13.30;;
18200;SDS011;9226;47.858;9.594;2024-03-02T08:07:39;111.03;;;13.40;;
18200;SDS011;9226;47.858;9.594;2024-03-02T08:10:06;90.33;;;11.53;;
18200;SDS011;9226;47.858;9.594;2024-03-02T08:12:32;411.00;;;22.50;;
18200;SDS011;9226;47.858;9.594;2024-03-02T08:14:57;625.07;;;29.17;;
18200;SDS011;9226;47.858;9.594;2024-03-02T08:17:22;556.43;;;26.70;;
18200;SDS011;9226;47.858;9.594;2024-03-02T08:19:47;349.97;;;19.27;;
18200;SDS011;9226;47.858;9.594;2024-03-02T08:22:14;414.93;;;21.53;;
18200;SDS011;9226;47.858;9.594;2024-03-02T08:24:40;478.37;;;24.10;;
18200;SDS011;9226;47.858;9.594;2024-03-02T08:27:06;291.50;;;16.47;;
18200;SDS011;9226;47.858;9.594;2024-03-02T08:29:31;468.33;;;24.47;;
18200;SDS011;9226;47.858;9.594;2024-03-02T08:31:56;70.10;;;10.87;;
18200;SDS011;9226;47.858;9.594;2024-03-02T08:34:22;377.23;;;20.30;;
18200;SDS011;9226;47.858;9.594;2024-03-02T08:36:47;259.90;;;15.07;;
18200;SDS011;9226;47.858;9.594;2024-03-02T08:39:13;135.83;;;11.70;;
18200;SDS011;9226;47.858;9.594;2024-03-02T08:41:42;388.33;;;22.03;;
18200;SDS011;9226;47.858;9.594;2024-03-02T08:44:09;108.27;;;11.50;;
18200;SDS011;9226;47.858;9.594;2024-03-02T08:46:34;247.10;;;17.93;;
18200;SDS011;9226;47.858;9.594;2024-03-02T08:49:00;195.60;;;13.97;;
18200;SDS011;9226;47.858;9.594;2024-03-02T08:51:25;72.23;;;10.33;;
18200;SDS011;9226;47.858;9.594;2024-03-02T08:53:51;59.80;;;10.47;;
18200;SDS011;9226;47.858;9.594;2024-03-02T08:56:16;45.30;;;9.30;;
18200;SDS011;9226;47.858;9.594;2024-03-02T08:58:42;66.07;;;10.23;;
18200;SDS011;9226;47.858;9.594;2024-03-02T09:01:08;128.47;;;10.97;;
18200;SDS011;9226;47.858;9.594;2024-03-02T09:03:34;60.13;;;9.33;;
18200;SDS011;9226;47.858;9.594;2024-03-02T09:06:00;15.97;;;8.13;;
18200;SDS011;9226;47.858;9.594;2024-03-02T09:08:25;26.27;;;8.23;;
18200;SDS011;9226;47.858;9.594;2024-03-02T09:10:51;46.13;;;9.63;;
18200;SDS011;9226;47.858;9.594;2024-03-02T09:13:17;20.47;;;9.23;;
18200;SDS011;9226;47.858;9.594;2024-03-02T09:15:42;19.27;;;8.67;;
18200;SDS011;9226;47.858;9.594;2024-03-02T09:18:09;32.27;;;8.73;;
18200;SDS011;9226;47.858;9.594;2024-03-02T09:20:34;15.77;;;8.20;;
18200;SDS011;9226;47.858;9.594;2024-03-02T09:23:00;14.87;;;8.00;;
18200;SDS011;9226;47.858;9.594;2024-03-02T09:25:25;13.90;;;7.63;;
18200;SDS011;9226;47.858;9.594;2024-03-02T09:27:51;12.03;;;7.40;;
18200;SDS011;9226;47.858;9.594;2024-03-02T09:30:16;10.80;;;6.50;;
18200;SDS011;9226;47.858;9.594;2024-03-02T09:32:41;12.10;;;6.17;;
18200;SDS011;9226;47.858;9.594;2024-03-02T09:35:07;8.57;;;5.40;;
18200;SDS011;9226;47.858;9.594;2024-03-02T09:37:32;10.20;;;5.63;;
18200;SDS011;9226;47.858;9.594;2024-03-02T09:39:58;10.07;;;5.83;;
18200;SDS011;9226;47.858;9.594;2024-03-02T09:42:24;9.03;;;5.73;;
18200;SDS011;9226;47.858;9.594;2024-03-02T09:44:50;8.17;;;5.27;;
18200;SDS011;9226;47.858;9.594;2024-03-02T09:47:17;8.67;;;5.20;;
18200;SDS011;9226;47.858;9.594;2024-03-02T09:49:42;9.30;;;5.93;;
18200;SDS011;9226;47.858;9.594;2024-03-02T09:52:08;9.43;;;6.17;;
18200;SDS011;9226;47.858;9.594;2024-03-02T09:54:35;9.70;;;5.67;;
18200;SDS011;9226;47.858;9.594;2024-03-02T09:57:01;7.60;;;5.50;;
18200;SDS011;9226;47.858;9.594;2024-03-02T09:59:27;8.53;;;5.80;;
18200;SDS011;9226;47.858;9.594;2024-03-02T10:01:57;7.73;;;5.63;;
18200;SDS011;9226;47.858;9.594;2024-03-02T10:04:27;9.83;;;6.30;;
18200;SDS011;9226;47.858;9.594;2024-03-02T10:09:41;6.77;;;4.50;;
18200;SDS011;9226;47.858;9.594;2024-03-02T10:12:08;6.17;;;3.90;;
18200;SDS011;9226;47.858;9.594;2024-03-02T10:14:34;5.73;;;3.83;;
18200;SDS011;9226;47.858;9.594;2024-03-02T10:17:03;5.90;;;4.07;;
18200;SDS011;9226;47.858;9.594;2024-03-02T10:19:30;6.67;;;3.80;;
18200;SDS011;9226;47.858;9.594;2024-03-02T10:22:00;6.57;;;3.40;;
18200;SDS011;9226;47.858;9.594;2024-03-02T10:24:27;5.17;;;3.57;;
18200;SDS011;9226;47.858;9.594;2024-03-02T10:26:53;6.00;;;3.10;;
18200;SDS011;9226;47.858;9.594;2024-03-02T10:29:19;3.37;;;2.70;;
18200;SDS011;9226;47.858;9.594;2024-03-02T10:31:45;3.40;;;2.47;;
18200;SDS011;9226;47.858;9.594;2024-03-02T10:34:11;3.47;;;2.00;;
18200;SDS011;9226;47.858;9.594;2024-03-02T10:36:40;6.77;;;2.50;;
18200;SDS011;9226;47.858;9.594;2024-03-02T10:39:07;5.10;;;2.47;;
18200;SDS011;9226;47.858;9.594;2024-03-02T10:41:34;2.40;;;1.80;;
18200;SDS011;9226;47.858;9.594;2024-03-02T10:44:03;3.70;;;2.27;;
18200;SDS011;9226;47.858;9.594;2024-03-02T10:46:31;3.67;;;2.30;;
18200;SDS011;9226;47.858;9.594;2024-03-02T10:48:58;5.87;;;2.00;;
18200;SDS011;9226;47.858;9.594;2024-03-02T10:51:28;2.90;;;2.13;;
18200;SDS011;9226;47.858;9.594;2024-03-02T10:53:56;4.53;;;2.97;;
18200;SDS011;9226;47.858;9.594;2024-03-02T10:56:29;6.40;;;2.67;;
18200;SDS011;9226;47.858;9.594;2024-03-02T10:59:02;3.63;;;2.40;;
18200;SDS011;9226;47.858;9.594;2024-03-02T11:01:32;5.83;;;2.80;;
18200;SDS011;9226;47.858;9.594;2024-03-02T11:03:59;3.83;;;2.40;;
18200;SDS011;9226;47.858;9.594;2024-03-02T11:06:28;3.83;;;2.90;;
18200;SDS011;9226;47.858;9.594;2024-03-02T11:08:53;4.10;;;3.10;;
18200;SDS011;9226;47.858;9.594;2024-03-02T11:11:27;3.47;;;2.80;;
18200;SDS011;9226;47.858;9.594;2024-03-02T11:13:54;4.07;;;2.63;;
18200;SDS011;9226;47.858;9.594;2024-03-02T11:18:52;4.17;;;2.60;;
18200;SDS011;9226;47.858;9.594;2024-03-02T11:21:18;3.57;;;2.60;;
18200;SDS011;9226;47.858;9.594;2024-03-02T11:23:44;2.80;;;2.13;;
18200;SDS011;9226;47.858;9.594;2024-03-02T11:26:19;4.30;;;3.03;;
18200;SDS011;9226;47.858;9.594;2024-03-02T11:28:45;3.80;;;2.70;;
18200;SDS011;9226;47.858;9.594;2024-03-02T11:31:10;3.83;;;2.70;;
18200;SDS011;9226;47.858;9.594;2024-03-02T11:33:36;4.30;;;3.40;;
18200;SDS011;9226;47.858;9.594;2024-03-02T11:36:01;4.00;;;2.93;;
18200;SDS011;9226;47.858;9.594;2024-03-02T11:38:28;4.70;;;3.20;;
18200;SDS011;9226;47.858;9.594;2024-03-02T11:40:55;5.30;;;3.47;;
18200;SDS011;9226;47.858;9.594;2024-03-02T11:43:21;4.40;;;3.30;;
18200;SDS011;9226;47.858;9.594;2024-03-02T11:45:46;4.03;;;2.43;;
18200;SDS011;9226;47.858;9.594;2024-03-02T11:48:15;3.27;;;2.40;;
18200;SDS011;9226;47.858;9.594;2024-03-02T11:50:47;4.70;;;2.67;;
18200;SDS011;9226;47.858;9.594;2024-03-02T11:53:15;5.13;;;3.00;;
18200;SDS011;9226;47.858;9.594;2024-03-02T11:55:41;5.83;;;1.53;;
18200;SDS011;9226;47.858;9.594;2024-03-02T11:58:11;2.70;;;1.90;;
18200;SDS011;9226;47.858;9.594;2024-03-02T12:00:37;2.17;;;1.80;;
18200;SDS011;9226;47.858;9.594;2024-03-02T12:03:06;2.87;;;2.10;;
18200;SDS011;9226;47.858;9.594;2024-03-02T12:05:33;2.80;;;2.00;;
18200;SDS011;9226;47.858;9.594;2024-03-02T12:08:00;2.73;;;1.87;;
18200;SDS011;9226;47.858;9.594;2024-03-02T12:10:27;4.37;;;2.23;;
18200;SDS011;9226;47.858;9.594;2024-03-02T12:13:00;5.20;;;3.10;;
18200;SDS011;9226;47.858;9.594;2024-03-02T12:15:29;4.37;;;3.23;;
18200;SDS011;9226;47.858;9.594;2024-03-02T12:17:56;3.87;;;2.70;;
18200;SDS011;9226;47.858;9.594;2024-03-02T12:20:23;4.67;;;2.43;;
18200;SDS011;9226;47.858;9.594;2024-03-02T12:22:52;4.00;;;2.80;;
18200;SDS011;9226;47.858;9.594;2024-03-02T12:25:22;5.07;;;2.50;;
18200;SDS011;9226;47.858;9.594;2024-03-02T12:27:50;3.10;;;2.10;;
18200;SDS011;9226;47.858;9.594;2024-03-02T12:30:17;2.93;;;2.03;;
18200;SDS011;9226;47.858;9.594;2024-03-02T12:32:46;5.23;;;1.73;;
18200;SDS011;9226;47.858;9.594;2024-03-02T12:35:12;15.93;;;2.30;;
18200;SDS011;9226;47.858;9.594;2024-03-02T12:37:45;1.93;;;1.60;;
18200;SDS011;9226;47.858;9.594;2024-03-02T12:40:12;2.33;;;1.70;;
18200;SDS011;9226;47.858;9.594;2024-03-02T12:42:41;4.33;;;1.60;;
18200;SDS011;9226;47.858;9.594;2024-03-02T12:45:09;6.87;;;1.60;;
18200;SDS011;9226;47.858;9.594;2024-03-02T12:47:35;2.60;;;1.33;;
18200;SDS011;9226;47.858;9.594;2024-03-02T12:50:01;2.00;;;1.40;;
18200;SDS011;9226;47.858;9.594;2024-03-02T12:52:28;1.80;;;1.10;;
18200;SDS011;9226;47.858;9.594;2024-03-02T12:54:53;1.00;;;0.90;;
18200;SDS011;9226;47.858;9.594;2024-03-02T12:57:25;3.73;;;1.20;;
18200;SDS011;9226;47.858;9.594;2024-03-02T12:59:52;1.50;;;1.00;;
18200;SDS011;9226;47.858;9.594;2024-03-02T13:02:17;1.10;;;1.00;;
18200;SDS011;9226;47.858;9.594;2024-03-02T13:04:43;1.10;;;0.93;;
18200;SDS011;9226;47.858;9.594;2024-03-02T13:07:09;1.10;;;0.80;;
18200;SDS011;9226;47.858;9.594;2024-03-02T13:09:38;1.57;;;1.30;;
18200;SDS011;9226;47.858;9.594;2024-03-02T13:12:04;0.87;;;0.57;;
18200;SDS011;9226;47.858;9.594;2024-03-02T13:14:33;1.70;;;0.90;;
18200;SDS011;9226;47.858;9.594;2024-03-02T13:17:00;1.20;;;0.80;;
18200;SDS011;9226;47.858;9.594;2024-03-02T13:19:28;5.00;;;0.80;;
18200;SDS011;9226;47.858;9.594;2024-03-02T13:21:55;0.70;;;0.70;;
18200;SDS011;9226;47.858;9.594;2024-03-02T13:24:22;2.80;;;0.70;;
18200;SDS011;9226;47.858;9.594;2024-03-02T13:26:50;0.77;;;0.70;;
18200;SDS011;9226;47.858;9.594;2024-03-02T13:29:20;1.70;;;1.03;;
18200;SDS011;9226;47.858;9.594;2024-03-02T13:31:46;2.37;;;0.90;;
18200;SDS011;9226;47.858;9.594;2024-03-02T13:34:11;1.40;;;0.90;;
18200;SDS011;9226;47.858;9.594;2024-03-02T13:36:37;1.23;;;0.93;;
18200;SDS011;9226;47.858;9.594;2024-03-02T13:39:03;1.07;;;0.70;;
18200;SDS011;9226;47.858;9.594;2024-03-02T13:41:30;2.00;;;0.90;;
18200;SDS011;9226;47.858;9.594;2024-03-02T13:43:56;2.87;;;0.90;;
18200;SDS011;9226;47.858;9.594;2024-03-02T13:46:21;1.20;;;0.93;;
18200;SDS011;9226;47.858;9.594;2024-03-02T13:48:47;1.40;;;1.03;;
18200;SDS011;9226;47.858;9.594;2024-03-02T13:51:12;1.30;;;0.97;;
18200;SDS011;9226;47.858;9.594;2024-03-02T13:53:37;1.33;;;0.70;;
18200;SDS011;9226;47.858;9.594;2024-03-02T13:56:03;1.80;;;1.20;;
18200;SDS011;9226;47.858;9.594;2024-03-02T13:58:28;1.73;;;1.30;;
18200;SDS011;9226;47.858;9.594;2024-03-02T14:00:54;2.60;;;1.57;;
18200;SDS011;9226;47.858;9.594;2024-03-02T14:03:21;2.67;;;1.57;;
18200;SDS011;9226;47.858;9.594;2024-03-02T14:05:46;1.80;;;1.40;;
18200;SDS011;9226;47.858;9.594;2024-03-02T14:08:12;4.60;;;1.50;;
18200;SDS011;9226;47.858;9.594;2024-03-02T14:10:38;2.20;;;1.70;;
18200;SDS011;9226;47.858;9.594;2024-03-02T14:13:03;2.40;;;1.80;;
18200;SDS011;9226;47.858;9.594;2024-03-02T14:15:28;3.80;;;1.60;;
18200;SDS011;9226;47.858;9.594;2024-03-02T14:17:55;2.53;;;1.60;;
18200;SDS011;9226;47.858;9.594;2024-03-02T14:20:20;6.73;;;1.60;;
18200;SDS011;9226;47.858;9.594;2024-03-02T14:22:47;3.47;;;1.67;;
18200;SDS011;9226;47.858;9.594;2024-03-02T14:25:13;2.60;;;1.67;;
18200;SDS011;9226;47.858;9.594;2024-03-02T14:27:38;4.30;;;1.63;;
18200;SDS011;9226;47.858;9.594;2024-03-02T14:30:03;2.63;;;1.70;;
18200;SDS011;9226;47.858;9.594;2024-03-02T14:32:30;2.40;;;1.70;;
18200;SDS011;9226;47.858;9.594;2024-03-02T14:34:55;1.97;;;1.60;;
18200;SDS011;9226;47.858;9.594;2024-03-02T14:37:21;1.93;;;1.40;;
18200;SDS011;9226;47.858;9.594;2024-03-02T14:39:46;2.73;;;1.70;;
18200;SDS011;9226;47.858;9.594;2024-03-02T14:42:12;7.03;;;1.80;;
18200;SDS011;9226;47.858;9.594;2024-03-02T14:44:37;3.87;;;1.90;;